sensor_id;sensor_type;location;lat;lon;timestamp;pressure;altitude;pressure_sealevel;temperature;humidity
11808;BME280;5961;42.640;23.380;2022-11-15T00:01:08;94600.03;;;6.50;99.72
11808;BME280;5961;42.640;23.380;2022-11-15T00:03:35;94576.34;;;6.32;100.00
11808;BME280;5961;42.640;23.380;2022-11-15T00:06:03;94589.69;;;6.40;100.00
11808;BME280;5961;42.640;23.380;2022-11-15T00:08:30;94585.53;;;6.21;100.00
11808;BME280;5961;42.640;23.380;2022-11-15T00:10:58;94599.34;;;6.31;100.00
11808;BME280;5961;42.640;23.380;2022-11-15T00:13:25;94592.59;;;6.25;100.00
11808;BME280;5961;42.640;23.380;2022-11-15T00:15:51;94587.50;;;6.29;99.89
11808;BME280;5961;42.640;23.380;2022-11-15T00:18:19;94589.66;;;6.27;99.34
11808;BME280;5961;42.640;23.380;2022-11-15T00:20:46;94598.56;;;6.31;97.74
11808;BME280;5961;42.640;23.380;2022-11-15T00:23:13;94601.19;;;6.31;96.43
11808;BME280;5961;42.640;23.380;2022-11-15T00:25:39;94592.03;;;6.42;95.59
11808;BME280;5961;42.640;23.380;2022-11-15T00:28:06;94584.09;;;6.42;95.67
11808;BME280;5961;42.640;23.380;2022-11-15T00:30:33;94586.84;;;6.50;96.29
11808;BME280;5961;42.640;23.380;2022-11-15T00:33:01;94587.94;;;6.63;96.83
11808;BME280;5961;42.640;23.380;2022-11-15T00:35:31;94574.63;;;6.68;97.34
11808;BME280;5961;42.640;23.380;2022-11-15T00:37:57;94585.00;;;6.78;98.00
11808;BME280;5961;42.640;23.380;2022-11-15T00:40:24;94577.94;;;6.87;98.42
11808;BME280;5961;42.640;23.380;2022-11-15T00:42:51;94581.25;;;6.93;98.11
11808;BME280;5961;42.640;23.380;2022-11-15T00:45:18;94575.78;;;6.89;98.45
11808;BME280;5961;42.640;23.380;2022-11-15T00:47:44;94580.06;;;6.99;97.99
11808;BME280;5961;42.640;23.380;2022-11-15T00:50:11;94572.34;;;7.02;98.12
11808;BME280;5961;42.640;23.380;2022-11-15T00:52:39;94575.97;;;7.06;98.24
11808;BME280;5961;42.640;23.380;2022-11-15T00:55:07;94578.00;;;7.09;98.20
11808;BME280;5961;42.640;23.380;2022-11-15T00:57:34;94572.22;;;7.07;97.40
11808;BME280;5961;42.640;23.380;2022-11-15T01:00:01;94575.38;;;7.09;95.66
11808;BME280;5961;42.640;23.380;2022-11-15T01:02:27;94571.16;;;7.08;92.87
11808;BME280;5961;42.640;23.380;2022-11-15T01:04:54;94571.16;;;7.08;92.18
11808;BME280;5961;42.640;23.380;2022-11-15T01:07:21;94567.38;;;7.01;91.80
11808;BME280;5961;42.640;23.380;2022-11-15T01:09:49;94520.84;;;6.64;91.67
11808;BME280;5961;42.640;23.380;2022-11-15T01:12:16;94569.69;;;7.02;91.61
11808;BME280;5961;42.640;23.380;2022-11-15T01:14:42;94559.84;;;6.94;92.81
11808;BME280;5961;42.640;23.380;2022-11-15T01:17:09;94567.84;;;7.03;93.64
11808;BME280;5961;42.640;23.380;2022-11-15T01:19:35;94566.78;;;7.04;94.63
11808;BME280;5961;42.640;23.380;2022-11-15T01:22:02;94566.94;;;7.07;95.38
11808;BME280;5961;42.640;23.380;2022-11-15T01:24:29;94560.19;;;7.15;95.76
11808;BME280;5961;42.640;23.380;2022-11-15T01:26:57;94559.88;;;7.16;95.77
11808;BME280;5961;42.640;23.380;2022-11-15T01:29:24;94559.88;;;7.16;95.36
11808;BME280;5961;42.640;23.380;2022-11-15T01:31:52;94546.25;;;7.23;95.93
11808;BME280;5961;42.640;23.380;2022-11-15T01:34:19;94559.06;;;7.30;96.25
11808;BME280;5961;42.640;23.380;2022-11-15T01:36:46;94562.69;;;7.34;96.03
11808;BME280;5961;42.640;23.380;2022-11-15T01:39:12;94560.44;;;7.27;96.13
11808;BME280;5961;42.640;23.380;2022-11-15T01:41:39;94563.97;;;7.23;96.19
11808;BME280;5961;42.640;23.380;2022-11-15T01:44:43;94558.09;;;7.26;96.21
11808;BME280;5961;42.640;23.380;2022-11-15T01:47:13;94558.22;;;7.21;95.67
11808;BME280;5961;42.640;23.380;2022-11-15T01:49:49;94562.69;;;7.34;94.84
11808;BME280;5961;42.640;23.380;2022-11-15T01:52:19;94561.72;;;7.30;93.87
11808;BME280;5961;42.640;23.380;2022-11-15T01:54:47;94560.22;;;7.37;93.62
11808;BME280;5961;42.640;23.380;2022-11-15T01:57:14;94549.66;;;7.37;93.92
11808;BME280;5961;42.640;23.380;2022-11-15T01:59:44;94555.88;;;7.41;93.86
11808;BME280;5961;42.640;23.380;2022-11-15T02:02:11;94548.28;;;7.40;92.05
11808;BME280;5961;42.640;23.380;2022-11-15T02:04:41;94560.38;;;7.41;91.28
11808;BME280;5961;42.640;23.380;2022-11-15T02:07:10;94551.44;;;7.28;89.35
11808;BME280;5961;42.640;23.380;2022-11-15T02:09:38;94552.09;;;7.34;88.85
11808;BME280;5961;42.640;23.380;2022-11-15T02:12:06;94552.63;;;7.22;88.32
11808;BME280;5961;42.640;23.380;2022-11-15T02:14:34;94562.03;;;7.14;87.85
11808;BME280;5961;42.640;23.380;2022-11-15T02:17:12;94561.66;;;7.07;87.86
11808;BME280;5961;42.640;23.380;2022-11-15T02:20:05;94559.00;;;7.07;87.55
11808;BME280;5961;42.640;23.380;2022-11-15T02:22:42;94458.44;;;6.41;86.89
11808;BME280;5961;42.640;23.380;2022-11-15T02:25:30;94546.13;;;6.92;87.54
11808;BME280;5961;42.640;23.380;2022-11-15T02:28:25;94549.53;;;6.93;88.32
11808;BME280;5961;42.640;23.380;2022-11-15T02:31:00;94555.03;;;6.96;87.87
11808;BME280;5961;42.640;23.380;2022-11-15T02:33:35;94551.53;;;6.87;87.96
11808;BME280;5961;42.640;23.380;2022-11-15T02:36:09;94556.81;;;6.87;88.18
11808;BME280;5961;42.640;23.380;2022-11-15T02:38:40;94542.72;;;6.78;88.57
11808;BME280;5961;42.640;23.380;2022-11-15T02:41:13;94546.75;;;6.76;89.12
11808;BME280;5961;42.640;23.380;2022-11-15T02:43:46;94546.44;;;6.77;88.90
11808;BME280;5961;42.640;23.380;2022-11-15T02:46:27;94515.28;;;6.52;89.22
11808;BME280;5961;42.640;23.380;2022-11-15T02:49:11;94546.84;;;6.71;89.12
11808;BME280;5961;42.640;23.380;2022-11-15T02:51:39;94549.56;;;6.66;90.11
11808;BME280;5961;42.640;23.380;2022-11-15T02:54:07;94555.75;;;6.61;90.24
11808;BME280;5961;42.640;23.380;2022-11-15T02:56:33;94554.69;;;6.48;91.05
11808;BME280;5961;42.640;23.380;2022-11-15T03:02:13;94493.44;;;5.92;92.31
11808;BME280;5961;42.640;23.380;2022-11-15T03:04:48;94548.09;;;6.19;92.93
11808;BME280;5961;42.640;23.380;2022-11-15T03:07:21;94543.09;;;6.03;93.86
11808;BME280;5961;42.640;23.380;2022-11-15T03:09:53;94547.88;;;6.01;93.80
11808;BME280;5961;42.640;23.380;2022-11-15T03:12:26;94542.28;;;5.89;95.16
11808;BME280;5961;42.640;23.380;2022-11-15T03:14:57;94542.00;;;5.91;94.93
11808;BME280;5961;42.640;23.380;2022-11-15T03:17:29;94547.38;;;5.86;95.32
11808;BME280;5961;42.640;23.380;2022-11-15T03:19:58;94512.06;;;5.49;96.43
11808;BME280;5961;42.640;23.380;2022-11-15T03:22:28;94543.06;;;5.71;96.94
11808;BME280;5961;42.640;23.380;2022-11-15T03:24:57;94534.47;;;5.66;97.71
11808;BME280;5961;42.640;23.380;2022-11-15T03:27:28;94529.41;;;5.69;98.54
11808;BME280;5961;42.640;23.380;2022-11-15T03:30:00;94487.22;;;5.37;97.55
11808;BME280;5961;42.640;23.380;2022-11-15T03:32:31;94523.19;;;5.79;97.82
11808;BME280;5961;42.640;23.380;2022-11-15T03:35:00;94525.47;;;5.85;97.66
11808;BME280;5961;42.640;23.380;2022-11-15T03:37:33;94529.59;;;5.91;96.41
11808;BME280;5961;42.640;23.380;2022-11-15T03:40:02;94517.03;;;5.83;96.23
11808;BME280;5961;42.640;23.380;2022-11-15T03:42:32;94516.47;;;5.86;95.88
11808;BME280;5961;42.640;23.380;2022-11-15T03:45:03;94521.75;;;5.86;95.71
11808;BME280;5961;42.640;23.380;2022-11-15T03:47:38;94513.31;;;5.84;96.03
11808;BME280;5961;42.640;23.380;2022-11-15T03:50:09;94512.44;;;5.75;95.89
11808;BME280;5961;42.640;23.380;2022-11-15T03:52:37;94498.44;;;5.61;96.67
11808;BME280;5961;42.640;23.380;2022-11-15T03:55:05;94506.81;;;5.63;97.47
11808;BME280;5961;42.640;23.380;2022-11-15T03:57:32;94506.81;;;5.63;97.38
11808;BME280;5961;42.640;23.380;2022-11-15T03:59:59;94508.97;;;5.61;96.06
11808;BME280;5961;42.640;23.380;2022-11-15T04:02:26;94507.81;;;5.67;95.61
11808;BME280;5961;42.640;23.380;2022-11-15T04:04:54;94504.09;;;5.68;94.24
11808;BME280;5961;42.640;23.380;2022-11-15T04:07:21;94505.69;;;5.69;92.25
11808;BME280;5961;42.640;23.380;2022-11-15T04:09:48;94507.72;;;5.72;91.20
11808;BME280;5961;42.640;23.380;2022-11-15T04:12:31;94508.31;;;5.69;89.66
11808;BME280;5961;42.640;23.380;2022-11-15T04:15:00;94513.16;;;5.62;89.08
11808;BME280;5961;42.640;23.380;2022-11-15T04:17:39;94492.63;;;5.45;89.28
11808;BME280;5961;42.640;23.380;2022-11-15T04:20:10;94517.13;;;5.46;90.01
11808;BME280;5961;42.640;23.380;2022-11-15T04:22:56;94497.78;;;5.37;90.63
11808;BME280;5961;42.640;23.380;2022-11-15T04:25:41;94493.34;;;5.32;91.68
11808;BME280;5961;42.640;23.380;2022-11-15T04:28:07;94487.59;;;5.30;92.81
11808;BME280;5961;42.640;23.380;2022-11-15T04:30:34;94489.66;;;5.33;93.15
11808;BME280;5961;42.640;23.380;2022-11-15T04:33:01;94497.84;;;5.32;93.67
11808;BME280;5961;42.640;23.380;2022-11-15T04:35:29;94492.06;;;5.30;94.38
11808;BME280;5961;42.640;23.380;2022-11-15T04:37:56;94491.25;;;5.16;95.35
11808;BME280;5961;42.640;23.380;2022-11-15T04:40:22;94498.66;;;5.14;97.09
11808;BME280;5961;42.640;23.380;2022-11-15T04:42:49;94492.03;;;5.16;97.70
11808;BME280;5961;42.640;23.380;2022-11-15T04:45:16;94489.09;;;5.18;98.19
11808;BME280;5961;42.640;23.380;2022-11-15T04:47:43;94496.78;;;5.14;98.16
11808;BME280;5961;42.640;23.380;2022-11-15T04:50:10;94492.22;;;5.20;98.00
11808;BME280;5961;42.640;23.380;2022-11-15T04:52:40;94463.66;;;4.94;98.17
11808;BME280;5961;42.640;23.380;2022-11-15T04:55:07;94482.72;;;5.05;98.48
11808;BME280;5961;42.640;23.380;2022-11-15T04:57:34;94492.81;;;5.17;99.35
11808;BME280;5961;42.640;23.380;2022-11-15T05:00:01;94483.00;;;5.04;99.54
11808;BME280;5961;42.640;23.380;2022-11-15T05:02:28;94484.75;;;5.08;100.00
11808;BME280;5961;42.640;23.380;2022-11-15T05:05:15;94501.78;;;5.16;100.00
11808;BME280;5961;42.640;23.380;2022-11-15T05:07:42;94495.94;;;5.19;100.00
11808;BME280;5961;42.640;23.380;2022-11-15T05:10:09;94500.28;;;5.28;99.13
11808;BME280;5961;42.640;23.380;2022-11-15T05:12:36;94499.06;;;5.21;99.79
11808;BME280;5961;42.640;23.380;2022-11-15T05:15:03;94492.75;;;5.22;100.00
11808;BME280;5961;42.640;23.380;2022-11-15T05:17:30;94499.97;;;5.30;100.00
11808;BME280;5961;42.640;23.380;2022-11-15T05:19:57;94488.38;;;5.31;100.00
11808;BME280;5961;42.640;23.380;2022-11-15T05:22:23;94496.63;;;5.43;100.00
11808;BME280;5961;42.640;23.380;2022-11-15T05:24:52;94492.63;;;5.45;100.00
11808;BME280;5961;42.640;23.380;2022-11-15T05:27:18;94502.72;;;5.57;100.00
11808;BME280;5961;42.640;23.380;2022-11-15T05:29:45;94497.66;;;5.61;100.00
11808;BME280;5961;42.640;23.380;2022-11-15T05:32:12;94487.84;;;5.47;100.00
11808;BME280;5961;42.640;23.380;2022-11-15T05:34:39;94451.56;;;5.26;100.00
11808;BME280;5961;42.640;23.380;2022-11-15T05:37:06;94501.06;;;5.61;100.00
11808;BME280;5961;42.640;23.380;2022-11-15T05:39:33;94497.66;;;5.61;100.00
11808;BME280;5961;42.640;23.380;2022-11-15T05:42:05;94463.09;;;5.30;100.00
11808;BME280;5961;42.640;23.380;2022-11-15T05:44:36;94505.84;;;5.59;100.00
11808;BME280;5961;42.640;23.380;2022-11-15T05:47:03;94480.50;;;5.44;100.00
11808;BME280;5961;42.640;23.380;2022-11-15T05:49:34;94493.22;;;5.56;100.00
11808;BME280;5961;42.640;23.380;2022-11-15T05:52:05;94493.75;;;5.58;100.00
11808;BME280;5961;42.640;23.380;2022-11-15T05:54:34;94495.88;;;5.56;100.00
11808;BME280;5961;42.640;23.380;2022-11-15T05:57:03;94491.75;;;5.50;100.00
11808;BME280;5961;42.640;23.380;2022-11-15T05:59:31;94502.38;;;5.45;100.00
11808;BME280;5961;42.640;23.380;2022-11-15T06:01:58;94493.06;;;5.34;100.00
11808;BME280;5961;42.640;23.380;2022-11-15T06:04:25;94501.03;;;5.29;100.00
11808;BME280;5961;42.640;23.380;2022-11-15T06:06:51;94490.50;;;5.29;100.00
11808;BME280;5961;42.640;23.380;2022-11-15T06:09:18;94398.28;;;4.64;100.00
11808;BME280;5961;42.640;23.380;2022-11-15T06:11:45;94500.47;;;5.32;100.00
11808;BME280;5961;42.640;23.380;2022-11-15T06:14:13;94503.19;;;5.27;100.00
11808;BME280;5961;42.640;23.380;2022-11-15T06:16:40;94508.91;;;5.34;100.00
11808;BME280;5961;42.640;23.380;2022-11-15T06:19:07;94487.47;;;5.22;100.00
11808;BME280;5961;42.640;23.380;2022-11-15T06:21:34;94500.69;;;5.35;100.00
11808;BME280;5961;42.640;23.380;2022-11-15T06:24:00;94516.94;;;5.42;100.00
11808;BME280;5961;42.640;23.380;2022-11-15T06:26:27;94511.88;;;5.46;100.00
11808;BME280;5961;42.640;23.380;2022-11-15T06:28:54;94509.28;;;5.41;100.00
11808;BME280;5961;42.640;23.380;2022-11-15T06:31:22;94503.66;;;5.47;100.00
11808;BME280;5961;42.640;23.380;2022-11-15T06:33:48;94508.72;;;5.44;100.00
11808;BME280;5961;42.640;23.380;2022-11-15T06:36:16;94480.28;;;5.09;100.00
11808;BME280;5961;42.640;23.380;2022-11-15T06:38:43;94494.59;;;5.21;100.00
11808;BME280;5961;42.640;23.380;2022-11-15T06:41:11;94501.72;;;5.21;100.00
11808;BME280;5961;42.640;23.380;2022-11-15T06:43:39;94508.47;;;5.27;100.00
11808;BME280;5961;42.640;23.380;2022-11-15T06:46:07;94503.19;;;5.27;100.00
11808;BME280;5961;42.640;23.380;2022-11-15T06:48:35;94509.56;;;5.07;100.00
11808;BME280;5961;42.640;23.380;2022-11-15T06:51:03;94475.06;;;4.71;100.00
11808;BME280;5961;42.640;23.380;2022-11-15T06:53:31;94501.94;;;5.06;100.00
11808;BME280;5961;42.640;23.380;2022-11-15T06:55:59;94495.03;;;5.10;100.00
11808;BME280;5961;42.640;23.380;2022-11-15T06:58:26;94521.06;;;5.11;100.00
11808;BME280;5961;42.640;23.380;2022-11-15T07:00:53;94495.81;;;5.10;100.00
11808;BME280;5961;42.640;23.380;2022-11-15T07:03:20;94495.94;;;5.19;100.00
11808;BME280;5961;42.640;23.380;2022-11-15T07:05:52;94502.75;;;5.20;100.00
11808;BME280;5961;42.640;23.380;2022-11-15T07:08:20;94493.88;;;5.16;100.00
11808;BME280;5961;42.640;23.380;2022-11-15T07:10:46;94490.25;;;5.12;100.00
11808;BME280;5961;42.640;23.380;2022-11-15T07:13:13;94497.72;;;5.23;100.00
11808;BME280;5961;42.640;23.380;2022-11-15T07:15:40;94497.13;;;5.26;100.00
11808;BME280;5961;42.640;23.380;2022-11-15T07:18:07;94488.38;;;5.31;100.00
11808;BME280;5961;42.640;23.380;2022-11-15T07:20:33;94503.28;;;5.22;100.00
11808;BME280;5961;42.640;23.380;2022-11-15T07:23:02;94479.59;;;5.35;100.00
11808;BME280;5961;42.640;23.380;2022-11-15T07:25:29;94492.91;;;5.44;100.00
11808;BME280;5961;42.640;23.380;2022-11-15T07:27:56;94477.47;;;5.37;100.00
11808;BME280;5961;42.640;23.380;2022-11-15T07:30:24;94486.09;;;5.43;100.00
11808;BME280;5961;42.640;23.380;2022-11-15T07:32:52;94490.78;;;5.46;100.00
11808;BME280;5961;42.640;23.380;2022-11-15T07:35:19;94483.84;;;5.50;100.00
11808;BME280;5961;42.640;23.380;2022-11-15T07:37:53;94498.00;;;5.54;100.00
11808;BME280;5961;42.640;23.380;2022-11-15T07:40:22;94489.94;;;5.32;100.00
11808;BME280;5961;42.640;23.380;2022-11-15T07:42:49;94491.66;;;5.23;100.00
11808;BME280;5961;42.640;23.380;2022-11-15T07:45:23;94395.94;;;4.44;100.00
11808;BME280;5961;42.640;23.380;2022-11-15T07:47:52;94494.19;;;4.95;100.00
11808;BME280;5961;42.640;23.380;2022-11-15T07:50:19;94484.19;;;5.11;100.00
11808;BME280;5961;42.640;23.380;2022-11-15T07:52:45;94484.03;;;5.21;100.00
11808;BME280;5961;42.640;23.380;2022-11-15T07:55:13;94486.31;;;5.28;100.00
11808;BME280;5961;42.640;23.380;2022-11-15T07:57:41;94481.97;;;5.37;100.00
11808;BME280;5961;42.640;23.380;2022-11-15T08:00:09;94488.63;;;5.48;100.00
11808;BME280;5961;42.640;23.380;2022-11-15T08:02:35;94484.94;;;5.49;100.00
11808;BME280;5961;42.640;23.380;2022-11-15T08:05:02;94480.22;;;5.46;100.00
11808;BME280;5961;42.640;23.380;2022-11-15T08:07:30;94491.41;;;5.38;100.00
11808;BME280;5961;42.640;23.380;2022-11-15T08:09:57;94489.09;;;5.36;100.00
11808;BME280;5961;42.640;23.380;2022-11-15T08:12:24;94487.34;;;5.45;100.00
11808;BME280;5961;42.640;23.380;2022-11-15T08:14:52;94482.19;;;5.54;100.00
11808;BME280;5961;42.640;23.380;2022-11-15T08:17:18;94485.47;;;5.65;100.00
11808;BME280;5961;42.640;23.380;2022-11-15T08:19:45;94486.22;;;5.65;100.00
11808;BME280;5961;42.640;23.380;2022-11-15T08:22:12;94484.88;;;5.68;100.00
11808;BME280;5961;42.640;23.380;2022-11-15T08:24:38;94475.72;;;5.79;100.00
11808;BME280;5961;42.640;23.380;2022-11-15T08:27:05;94481.66;;;5.84;100.00
11808;BME280;5961;42.640;23.380;2022-11-15T08:29:40;94477.47;;;5.83;100.00
11808;BME280;5961;42.640;23.380;2022-11-15T08:32:09;94478.56;;;5.82;100.00
11808;BME280;5961;42.640;23.380;2022-11-15T08:34:36;94474.94;;;5.78;100.00
11808;BME280;5961;42.640;23.380;2022-11-15T08:37:04;94479.53;;;5.86;100.00
11808;BME280;5961;42.640;23.380;2022-11-15T08:39:30;94481.81;;;5.93;100.00
11808;BME280;5961;42.640;23.380;2022-11-15T08:41:57;94470.97;;;5.94;100.00
11808;BME280;5961;42.640;23.380;2022-11-15T08:44:24;94448.84;;;5.77;100.00
11808;BME280;5961;42.640;23.380;2022-11-15T08:46:51;94462.56;;;5.92;100.00
11808;BME280;5961;42.640;23.380;2022-11-15T08:49:19;94468.03;;;5.96;100.00
11808;BME280;5961;42.640;23.380;2022-11-15T08:51:45;94460.03;;;5.87;100.00
11808;BME280;5961;42.640;23.380;2022-11-15T08:54:12;94460.44;;;5.94;100.00
11808;BME280;5961;42.640;23.380;2022-11-15T08:56:40;94460.03;;;6.01;100.00
11808;BME280;5961;42.640;23.380;2022-11-15T08:59:07;94463.56;;;6.10;100.00
11808;BME280;5961;42.640;23.380;2022-11-15T09:01:33;94463.25;;;6.12;100.00
11808;BME280;5961;42.640;23.380;2022-11-15T09:04:00;94446.06;;;6.14;100.00
11808;BME280;5961;42.640;23.380;2022-11-15T09:06:28;94447.50;;;6.20;100.00
11808;BME280;5961;42.640;23.380;2022-11-15T09:08:55;94421.63;;;6.08;100.00
11808;BME280;5961;42.640;23.380;2022-11-15T09:11:22;94446.72;;;6.33;100.00
11808;BME280;5961;42.640;23.380;2022-11-15T09:13:49;94439.00;;;6.37;100.00
11808;BME280;5961;42.640;23.380;2022-11-15T09:16:16;94437.31;;;6.41;100.00
11808;BME280;5961;42.640;23.380;2022-11-15T09:18:43;94432.44;;;6.48;100.00
11808;BME280;5961;42.640;23.380;2022-11-15T09:21:10;94427.03;;;6.53;100.00
11808;BME280;5961;42.640;23.380;2022-11-15T09:23:38;94430.66;;;6.57;100.00
11808;BME280;5961;42.640;23.380;2022-11-15T09:26:05;94421.34;;;6.59;100.00
11808;BME280;5961;42.640;23.380;2022-11-15T09:28:33;94431.03;;;6.64;100.00
11808;BME280;5961;42.640;23.380;2022-11-15T09:31:01;94423.13;;;6.64;100.00
11808;BME280;5961;42.640;23.380;2022-11-15T09:33:28;94412.06;;;6.62;100.00
11808;BME280;5961;42.640;23.380;2022-11-15T09:35:59;94417.59;;;6.74;100.00
11808;BME280;5961;42.640;23.380;2022-11-15T09:38:26;94402.50;;;6.52;100.00
11808;BME280;5961;42.640;23.380;2022-11-15T09:41:08;94368.09;;;6.44;100.00
11808;BME280;5961;42.640;23.380;2022-11-15T09:43:44;94386.25;;;6.59;100.00
11808;BME280;5961;42.640;23.380;2022-11-15T09:46:17;94404.25;;;6.57;100.00
11808;BME280;5961;42.640;23.380;2022-11-15T09:48:52;94400.88;;;6.65;100.00
11808;BME280;5961;42.640;23.380;2022-11-15T09:51:26;94396.31;;;6.71;100.00
11808;BME280;5961;42.640;23.380;2022-11-15T09:53:59;94386.41;;;6.76;100.00
11808;BME280;5961;42.640;23.380;2022-11-15T09:56:30;94394.19;;;6.81;100.00
11808;BME280;5961;42.640;23.380;2022-11-15T09:59:08;94386.03;;;6.91;100.00
11808;BME280;5961;42.640;23.380;2022-11-15T10:01:44;94377.09;;;7.01;100.00
11808;BME280;5961;42.640;23.380;2022-11-15T10:04:11;94376.06;;;7.10;100.00
11808;BME280;5961;42.640;23.380;2022-11-15T10:06:42;94351.94;;;7.03;100.00
11808;BME280;5961;42.640;23.380;2022-11-15T10:09:15;94377.72;;;7.29;99.23
11808;BME280;5961;42.640;23.380;2022-11-15T10:11:43;94371.06;;;7.31;98.84
11808;BME280;5961;42.640;23.380;2022-11-15T10:14:12;94368.47;;;7.40;98.79
11808;BME280;5961;42.640;23.380;2022-11-15T10:17:06;94363.03;;;7.45;98.76
11808;BME280;5961;42.640;23.380;2022-11-15T10:19:40;94363.03;;;7.45;98.37
11808;BME280;5961;42.640;23.380;2022-11-15T10:22:24;94356.25;;;7.52;98.43
11808;BME280;5961;42.640;23.380;2022-11-15T10:25:00;94355.53;;;7.69;98.06
11808;BME280;5961;42.640;23.380;2022-11-15T10:27:32;94364.56;;;7.77;97.06
11808;BME280;5961;42.640;23.380;2022-11-15T10:29:59;94357.75;;;7.84;96.14
11808;BME280;5961;42.640;23.380;2022-11-15T10:32:25;94351.56;;;7.97;95.95
11808;BME280;5961;42.640;23.380;2022-11-15T10:34:53;94350.81;;;8.05;95.47
11808;BME280;5961;42.640;23.380;2022-11-15T10:37:27;94314.53;;;7.97;94.84
11808;BME280;5961;42.640;23.380;2022-11-15T10:40:05;94334.16;;;8.22;94.65
11808;BME280;5961;42.640;23.380;2022-11-15T10:42:34;94314.28;;;8.42;93.81
11808;BME280;5961;42.640;23.380;2022-11-15T10:45:01;94329.41;;;8.58;93.56
11808;BME280;5961;42.640;23.380;2022-11-15T10:47:29;94329.88;;;8.69;92.60
11808;BME280;5961;42.640;23.380;2022-11-15T10:49:59;94318.66;;;8.72;91.82
11808;BME280;5961;42.640;23.380;2022-11-15T10:52:26;94287.94;;;8.62;92.29
11808;BME280;5961;42.640;23.380;2022-11-15T10:54:56;94307.72;;;8.73;91.94
11808;BME280;5961;42.640;23.380;2022-11-15T10:57:25;94310.53;;;8.94;91.92
11808;BME280;5961;42.640;23.380;2022-11-15T10:59:56;94315.47;;;9.04;91.28
11808;BME280;5961;42.640;23.380;2022-11-15T11:02:30;94303.47;;;9.15;90.70
11808;BME280;5961;42.640;23.380;2022-11-15T11:04:57;94294.69;;;9.23;90.40
11808;BME280;5961;42.640;23.380;2022-11-15T11:07:26;94285.31;;;9.26;89.43
11808;BME280;5961;42.640;23.380;2022-11-15T11:09:58;94293.41;;;9.38;89.12
11808;BME280;5961;42.640;23.380;2022-11-15T11:12:28;94280.72;;;9.44;88.66
11808;BME280;5961;42.640;23.380;2022-11-15T11:14:57;94281.81;;;9.51;88.16
11808;BME280;5961;42.640;23.380;2022-11-15T11:17:32;94275.03;;;9.62;88.50
11808;BME280;5961;42.640;23.380;2022-11-15T11:20:08;94280.44;;;9.74;88.34
11808;BME280;5961;42.640;23.380;2022-11-15T11:22:42;94286.69;;;9.78;88.00
11808;BME280;5961;42.640;23.380;2022-11-15T11:25:21;94266.91;;;9.97;87.52
11808;BME280;5961;42.640;23.380;2022-11-15T11:27:59;94271.44;;;9.96;86.19
11808;BME280;5961;42.640;23.380;2022-11-15T11:30:38;94268.69;;;10.13;85.72
11808;BME280;5961;42.640;23.380;2022-11-15T11:33:13;94260.97;;;10.20;85.84
11808;BME280;5961;42.640;23.380;2022-11-15T11:35:55;94256.69;;;10.28;85.36
11808;BME280;5961;42.640;23.380;2022-11-15T11:38:51;94246.19;;;10.31;84.67
11808;BME280;5961;42.640;23.380;2022-11-15T11:41:32;94240.50;;;10.41;84.43
11808;BME280;5961;42.640;23.380;2022-11-15T11:44:15;94199.16;;;10.32;84.42
11808;BME280;5961;42.640;23.380;2022-11-15T11:46:56;94237.72;;;10.71;83.35
11808;BME280;5961;42.640;23.380;2022-11-15T11:49:31;94239.00;;;10.85;82.59
11808;BME280;5961;42.640;23.380;2022-11-15T11:52:04;94230.63;;;10.95;82.43
11808;BME280;5961;42.640;23.380;2022-11-15T11:54:38;94226.63;;;11.01;81.21
11808;BME280;5961;42.640;23.380;2022-11-15T11:57:13;94217.66;;;11.06;81.47
11808;BME280;5961;42.640;23.380;2022-11-15T11:59:46;94221.91;;;11.19;81.01
11808;BME280;5961;42.640;23.380;2022-11-15T12:02:32;94215.59;;;11.36;80.45
11808;BME280;5961;42.640;23.380;2022-11-15T12:05:07;94220.34;;;11.67;80.04
11808;BME280;5961;42.640;23.380;2022-11-15T12:07:37;94221.25;;;11.95;77.42
11808;BME280;5961;42.640;23.380;2022-11-15T12:10:16;94206.69;;;12.17;76.75
11808;BME280;5961;42.640;23.380;2022-11-15T12:12:50;94182.94;;;12.12;75.92
11808;BME280;5961;42.640;23.380;2022-11-15T12:15:22;94196.94;;;12.36;75.35
11808;BME280;5961;42.640;23.380;2022-11-15T12:17:52;94198.25;;;12.42;75.10
11808;BME280;5961;42.640;23.380;2022-11-15T12:20:22;94193.59;;;12.67;74.97
11808;BME280;5961;42.640;23.380;2022-11-15T12:22:54;94191.50;;;13.04;72.97
11808;BME280;5961;42.640;23.380;2022-11-15T12:25:26;94191.03;;;13.45;71.19
11808;BME280;5961;42.640;23.380;2022-11-15T12:27:58;94183.47;;;13.82;69.54
11808;BME280;5961;42.640;23.380;2022-11-15T12:30:38;94184.19;;;14.14;67.91
11808;BME280;5961;42.640;23.380;2022-11-15T12:33:29;94175.75;;;14.31;66.93
11808;BME280;5961;42.640;23.380;2022-11-15T12:35:58;94174.47;;;14.63;66.75
11808;BME280;5961;42.640;23.380;2022-11-15T12:38:50;94167.53;;;15.01;65.04
11808;BME280;5961;42.640;23.380;2022-11-15T12:41:19;94174.66;;;15.38;63.07
11808;BME280;5961;42.640;23.380;2022-11-15T12:43:47;94149.25;;;15.52;61.67
11808;BME280;5961;42.640;23.380;2022-11-15T12:46:21;94162.97;;;15.73;61.50
11808;BME280;5961;42.640;23.380;2022-11-15T12:48:57;94148.81;;;15.72;61.14
11808;BME280;5961;42.640;23.380;2022-11-15T12:57:48;94139.84;;;16.51;58.45
11808;BME280;5961;42.640;23.380;2022-11-15T13:00:44;94143.97;;;16.74;57.64
11808;BME280;5961;42.640;23.380;2022-11-15T13:03:27;94143.81;;;16.60;58.10
11808;BME280;5961;42.640;23.380;2022-11-15T13:06:07;94137.38;;;16.65;58.24
11808;BME280;5961;42.640;23.380;2022-11-15T13:08:43;94134.31;;;16.66;58.53
11808;BME280;5961;42.640;23.380;2022-11-15T13:11:50;94126.06;;;16.85;58.11
11808;BME280;5961;42.640;23.380;2022-11-15T13:14:45;94132.78;;;17.06;57.19
11808;BME280;5961;42.640;23.380;2022-11-15T13:17:27;94128.16;;;17.02;56.65
11808;BME280;5961;42.640;23.380;2022-11-15T13:20:11;94132.56;;;16.84;57.00
11808;BME280;5961;42.640;23.380;2022-11-15T13:22:45;94126.16;;;16.59;57.83
11808;BME280;5961;42.640;23.380;2022-11-15T13:25:52;94116.66;;;16.65;58.41
11808;BME280;5961;42.640;23.380;2022-11-15T13:28:27;94122.09;;;16.72;58.36
11808;BME280;5961;42.640;23.380;2022-11-15T13:30:59;94094.06;;;16.66;58.12
11808;BME280;5961;42.640;23.380;2022-11-15T13:33:31;94104.91;;;16.80;57.30